createdAt,value
2018-02-22T00:00:16.748Z,13.80
2018-02-22T00:02:45.295Z,16.47
2018-02-22T00:05:14.614Z,15.33
2018-02-22T00:07:43.231Z,14.07
2018-02-22T00:10:11.786Z,14.77
2018-02-22T00:12:40.329Z,15.10
2018-02-22T00:15:09.703Z,14.97
2018-02-22T00:17:38.253Z,16.77
2018-02-22T00:20:06.812Z,13.57
2018-02-22T00:22:35.505Z,13.30
2018-02-22T00:25:04.056Z,12.30
2018-02-22T00:27:32.612Z,14.73
2018-02-22T00:30:01.218Z,16.23
2018-02-22T00:32:30.548Z,13.90
2018-02-22T00:34:59.860Z,12.70
2018-02-22T00:37:28.680Z,14.10
2018-02-22T00:39:57.224Z,12.67
2018-02-22T00:42:25.780Z,13.47
2018-02-22T00:44:54.413Z,13.97
2018-02-22T00:47:23.320Z,13.50
2018-02-22T00:49:51.868Z,16.23
2018-02-22T00:52:20.697Z,12.73
2018-02-22T00:54:49.304Z,11.03
2018-02-22T00:57:17.861Z,12.47
2018-02-22T00:59:46.648Z,14.63
2018-02-22T01:02:15.965Z,11.77
2018-02-22T01:04:44.528Z,13.03
2018-02-22T01:07:13.316Z,14.43
2018-02-22T01:09:41.868Z,13.93
2018-02-22T01:12:10.416Z,13.13
2018-02-22T01:14:39.346Z,15.33
2018-02-22T01:17:07.901Z,12.37
2018-02-22T01:19:37.216Z,12.13
2018-02-22T01:22:05.910Z,12.70
2018-02-22T01:24:34.461Z,12.93
2018-02-22T01:27:03.784Z,13.00
2018-02-22T01:29:33.236Z,13.17
2018-02-22T01:32:02.555Z,12.13
2018-02-22T01:34:31.117Z,10.97
2018-02-22T01:37:00.004Z,13.60
2018-02-22T01:39:28.552Z,16.13
2018-02-22T01:41:57.105Z,13.43
2018-02-22T01:44:25.704Z,10.37
2018-02-22T01:46:55.021Z,10.07
2018-02-22T01:49:23.568Z,12.97
2018-02-22T01:51:52.168Z,9.20
2018-02-22T01:54:21.492Z,11.70
2018-02-22T01:56:50.043Z,8.47
2018-02-22T01:59:18.892Z,11.30
2018-02-22T02:01:47.441Z,10.07
2018-02-22T02:04:15.984Z,8.40
2018-02-22T02:06:44.584Z,11.20
2018-02-22T02:09:13.891Z,7.50
2018-02-22T02:11:43.202Z,7.93
2018-02-22T02:14:12.038Z,9.20
2018-02-22T02:16:40.592Z,8.20
2018-02-22T02:19:09.141Z,8.17
2018-02-22T02:21:38.525Z,8.50
2018-02-22T02:24:07.082Z,8.23
2018-02-22T02:26:35.626Z,7.57
2018-02-22T02:29:04.229Z,7.03
2018-02-22T02:31:32.818Z,7.80
2018-02-22T02:34:01.356Z,7.13
2018-02-22T02:36:30.824Z,6.80
2018-02-22T02:39:00.129Z,7.93
2018-02-22T02:41:28.668Z,9.30
2018-02-22T02:43:57.364Z,8.13
2018-02-22T02:46:25.903Z,8.27
2018-02-22T02:48:54.471Z,7.93
2018-02-22T02:51:23.059Z,7.73
2018-02-22T02:53:51.605Z,7.07
2018-02-22T02:56:20.165Z,8.93
2018-02-22T02:58:49.087Z,5.53
2018-02-22T03:04:19.247Z,6.20
2018-02-22T03:06:56.962Z,7.47
2018-02-22T03:09:25.926Z,7.47
2018-02-22T03:11:54.469Z,9.93
2018-02-22T03:14:23.012Z,8.07
2018-02-22T03:16:51.608Z,5.43
2018-02-22T03:19:20.165Z,6.97
2018-02-22T03:21:48.704Z,6.67
2018-02-22T03:24:18.068Z,7.43
2018-02-22T03:26:46.607Z,6.83
2018-02-22T03:29:15.153Z,7.80
2018-02-22T03:31:44.514Z,6.43
2018-02-22T03:34:13.064Z,11.73
2018-02-22T03:36:41.600Z,9.33
2018-02-22T03:39:10.364Z,7.60
2018-02-22T03:41:38.909Z,7.23
2018-02-22T03:44:07.476Z,4.77
2018-02-22T03:46:37.037Z,9.03
2018-02-22T03:49:05.577Z,6.23
2018-02-22T03:51:34.885Z,7.33
2018-02-22T03:54:03.708Z,4.00
2018-02-22T03:56:32.248Z,5.03
2018-02-22T03:59:01.557Z,3.03
2018-02-22T04:01:30.368Z,3.77
2018-02-22T04:03:58.908Z,3.90
2018-02-22T04:06:28.223Z,6.57
2018-02-22T04:08:56.918Z,4.67
2018-02-22T04:11:25.460Z,3.27
2018-02-22T04:13:54.008Z,3.47
2018-02-22T04:16:22.596Z,3.77
2018-02-22T04:18:51.140Z,5.10
2018-02-22T04:21:19.708Z,3.63
2018-02-22T04:23:49.269Z,3.37
2018-02-22T04:26:17.812Z,4.10
2018-02-22T04:28:46.348Z,4.50
2018-02-22T04:31:14.939Z,4.20
2018-02-22T04:33:43.480Z,3.50
2018-02-22T04:36:12.026Z,6.50
2018-02-22T04:38:41.591Z,2.60
2018-02-22T04:41:10.181Z,5.57
2018-02-22T04:43:38.732Z,4.13
2018-02-22T04:46:07.650Z,2.33
2018-02-22T04:48:36.189Z,4.03
2018-02-22T04:51:04.729Z,2.50
2018-02-22T04:53:33.497Z,3.50
2018-02-22T04:56:02.036Z,5.00
2018-02-22T04:58:30.616Z,4.23
2018-02-22T05:00:59.971Z,5.20
2018-02-22T05:03:28.508Z,6.80
2018-02-22T05:05:57.814Z,11.87
2018-02-22T05:08:26.633Z,10.77
2018-02-22T05:10:55.184Z,18.53
2018-02-22T05:13:23.724Z,11.10
2018-02-22T05:15:52.498Z,6.30
2018-02-22T05:18:21.036Z,7.20
2018-02-22T05:20:49.576Z,6.83
2018-02-22T05:23:18.167Z,6.97
2018-02-22T05:25:46.708Z,4.00
2018-02-22T05:28:15.256Z,3.87
2018-02-22T05:30:44.764Z,10.00
2018-02-22T05:33:14.096Z,11.37
2018-02-22T05:35:42.633Z,8.10
2018-02-22T05:38:11.472Z,11.93
2018-02-22T05:40:40.021Z,26.53
2018-02-22T05:43:09.337Z,21.20
2018-02-22T05:45:37.953Z,21.17
2018-02-22T05:48:06.501Z,23.17
2018-02-22T05:50:35.048Z,32.07
2018-02-22T05:53:04.009Z,29.53
2018-02-22T05:55:32.552Z,28.87
2018-02-22T05:58:01.103Z,31.87
2018-02-22T06:00:29.696Z,31.57
2018-02-22T06:02:59.012Z,27.73
2018-02-22T06:05:28.324Z,11.30
2018-02-22T06:07:56.937Z,14.03
2018-02-22T06:10:25.481Z,12.23
2018-02-22T06:12:54.793Z,11.77
2018-02-22T06:15:23.608Z,4.73
2018-02-22T06:17:52.145Z,2.37
2018-02-22T06:20:21.452Z,1.93
2018-02-22T06:22:51.005Z,2.17
2018-02-22T06:25:19.552Z,3.80
2018-02-22T06:27:48.097Z,8.97
2018-02-22T06:30:17.063Z,10.80
2018-02-22T06:32:45.628Z,9.83
2018-02-22T06:35:14.177Z,16.37
2018-02-22T06:37:43.541Z,9.73
2018-02-22T06:40:12.089Z,2.87
2018-02-22T06:42:40.633Z,2.20
2018-02-22T06:45:10.090Z,3.40
2018-02-22T06:47:38.631Z,0.97
2018-02-22T06:50:07.941Z,1.10
2018-02-22T06:52:36.525Z,2.40
2018-02-22T06:55:05.839Z,1.40
2018-02-22T06:57:34.385Z,8.00
2018-02-22T07:00:03.900Z,5.20
2018-02-22T07:02:33.225Z,2.40
2018-02-22T07:05:01.848Z,2.50
2018-02-22T07:07:30.441Z,7.77
2018-02-22T07:09:58.996Z,5.57
2018-02-22T07:12:27.545Z,11.30
2018-02-22T07:14:57.095Z,4.13
2018-02-22T07:17:25.645Z,8.10
2018-02-22T07:19:54.189Z,3.43
2018-02-22T07:22:22.797Z,10.70
2018-02-22T07:24:51.344Z,8.13
2018-02-22T07:27:19.954Z,15.87
2018-02-22T07:29:49.321Z,8.33
2018-02-22T07:32:17.870Z,14.23
2018-02-22T07:34:46.417Z,15.03
2018-02-22T07:37:15.785Z,24.53
2018-02-22T07:39:44.337Z,32.93
2018-02-22T07:42:12.904Z,29.07
2018-02-22T07:44:41.732Z,14.73
2018-02-22T07:47:10.280Z,8.37
2018-02-22T07:49:38.833Z,9.47
2018-02-22T07:52:08.207Z,16.93
2018-02-22T07:54:36.752Z,6.27
2018-02-22T07:57:05.303Z,6.87
2018-02-22T07:59:34.981Z,10.47
2018-02-22T08:02:03.528Z,2.13
2018-02-22T08:04:32.087Z,14.33
2018-02-22T08:07:01.447Z,4.87
2018-02-22T08:09:29.993Z,4.77
2018-02-22T08:11:58.573Z,5.27
2018-02-22T08:14:27.267Z,5.03
2018-02-22T08:16:55.808Z,6.87
2018-02-22T08:19:24.368Z,3.87
2018-02-22T08:21:52.971Z,7.47
2018-02-22T08:24:21.537Z,6.00
2018-02-22T08:26:50.848Z,7.77
2018-02-22T08:29:20.116Z,7.97
2018-02-22T08:31:48.664Z,7.13
2018-02-22T08:34:17.977Z,7.77
2018-02-22T08:36:46.902Z,7.37
2018-02-22T08:39:16.489Z,7.40
2018-02-22T08:41:45.026Z,8.87
2018-02-22T08:44:14.393Z,8.17
2018-02-22T08:46:42.935Z,5.43
2018-02-22T08:49:11.484Z,32.80
2018-02-22T08:51:40.085Z,33.80
2018-02-22T08:54:09.400Z,8.97
2018-02-22T08:56:37.969Z,3.83
2018-02-22T08:59:07.340Z,5.17
2018-02-22T09:01:36.656Z,17.23
2018-02-22T09:04:05.220Z,13.27
2018-02-22T09:06:33.817Z,9.43
2018-02-22T09:09:02.361Z,8.90
2018-02-22T09:11:30.910Z,8.43
2018-02-22T09:14:00.416Z,5.00
2018-02-22T09:16:29.729Z,11.87
2018-02-22T09:18:58.272Z,13.27
2018-02-22T09:21:26.866Z,13.13
2018-02-22T09:23:55.414Z,7.03
2018-02-22T09:26:23.961Z,14.77
2018-02-22T09:28:52.548Z,4.30
2018-02-22T09:31:21.097Z,4.00
2018-02-22T09:33:49.647Z,1.83
2018-02-22T09:36:18.640Z,1.90
2018-02-22T09:38:47.192Z,1.57
2018-02-22T09:41:15.741Z,1.73
2018-02-22T09:43:44.343Z,2.17
2018-02-22T09:46:12.897Z,2.07
2018-02-22T09:48:41.469Z,1.30
2018-02-22T09:51:11.025Z,1.20
2018-02-22T09:53:39.573Z,1.40
2018-02-22T09:56:08.118Z,1.63
2018-02-22T09:58:36.857Z,5.40
2018-02-22T10:01:05.401Z,14.90
2018-02-22T10:03:34.722Z,21.87
2018-02-22T10:06:03.472Z,47.13
2018-02-22T10:08:32.028Z,12.47
2018-02-22T10:11:00.588Z,19.53
2018-02-22T10:13:29.401Z,6.13
2018-02-22T10:15:57.950Z,15.13
2018-02-22T10:18:26.512Z,2.07
2018-02-22T10:20:55.888Z,2.30
2018-02-22T10:23:24.444Z,7.47
2018-02-22T10:25:53.033Z,2.07
2018-02-22T10:28:21.777Z,1.60
2018-02-22T10:30:51.092Z,1.23
2018-02-22T10:33:19.640Z,1.10
2018-02-22T10:35:49.011Z,2.33
2018-02-22T10:38:17.564Z,2.23
2018-02-22T10:40:46.133Z,5.50
2018-02-22T10:43:14.938Z,9.13
2018-02-22T10:45:43.493Z,2.43
2018-02-22T10:48:12.040Z,1.60
2018-02-22T10:50:41.412Z,2.60
2018-02-22T10:53:09.952Z,3.53
2018-02-22T10:55:38.513Z,3.17
2018-02-22T10:58:08.073Z,7.23
2018-02-22T11:00:42.091Z,2.63
2018-02-22T11:03:10.972Z,4.47
2018-02-22T11:05:39.520Z,2.00
2018-02-22T11:08:08.064Z,2.73
2018-02-22T11:10:36.941Z,2.93
2018-02-22T11:13:05.488Z,1.80
2018-02-22T11:15:34.032Z,3.17
2018-02-22T11:18:02.780Z,2.33
2018-02-22T11:20:31.328Z,1.97
2018-02-22T11:22:59.876Z,2.37
2018-02-22T11:25:28.485Z,2.63
2018-02-22T11:27:57.846Z,1.90
2018-02-22T11:30:26.392Z,2.20
2018-02-22T11:32:55.002Z,2.83
2018-02-22T11:35:23.550Z,0.80
2018-02-22T11:37:52.101Z,1.03
2018-02-22T11:40:21.784Z,0.90
2018-02-22T11:42:50.333Z,1.60
2018-02-22T11:45:18.880Z,3.77
2018-02-22T11:47:48.247Z,4.57
2018-02-22T11:50:16.823Z,1.07
2018-02-22T11:52:46.153Z,1.30
2018-02-22T11:55:14.884Z,1.13
2018-02-22T11:57:43.435Z,0.73
2018-02-22T12:00:12.773Z,0.63
2018-02-22T12:02:41.465Z,0.93
2018-02-22T12:05:10.008Z,1.13
2018-02-22T12:07:39.324Z,1.13
2018-02-22T12:10:08.085Z,1.20
2018-02-22T12:12:37.410Z,3.47
2018-02-22T12:15:05.957Z,3.77
2018-02-22T12:17:34.692Z,4.33
2018-02-22T12:20:03.240Z,2.23
2018-02-22T12:22:31.797Z,7.00
2018-02-22T12:25:00.538Z,4.43
2018-02-22T12:27:29.845Z,6.07
2018-02-22T12:29:58.393Z,11.27
2018-02-22T12:32:27.097Z,7.23
2018-02-22T12:34:56.409Z,1.93
2018-02-22T12:37:24.961Z,1.00
2018-02-22T12:39:53.924Z,1.27
2018-02-22T12:42:22.479Z,1.77
2018-02-22T12:44:52.744Z,1.53
2018-02-22T12:47:21.343Z,1.47
2018-02-22T12:49:49.904Z,2.50
2018-02-22T12:52:18.460Z,3.10
2018-02-22T12:54:47.376Z,2.40
2018-02-22T12:57:15.929Z,2.70
2018-02-22T12:59:44.484Z,3.80
2018-02-22T13:02:13.841Z,3.00
2018-02-22T13:04:42.395Z,4.03
2018-02-22T13:07:10.960Z,3.30
2018-02-22T13:09:39.802Z,4.20
2018-02-22T13:12:08.348Z,2.53
2018-02-22T13:14:36.913Z,5.17
2018-02-22T13:17:05.669Z,4.57
2018-02-22T13:19:34.225Z,4.47
2018-02-22T13:22:02.776Z,6.60
2018-02-22T13:24:31.376Z,8.93
2018-02-22T13:26:59.926Z,6.03
2018-02-22T13:29:29.242Z,6.47
2018-02-22T13:31:58.064Z,18.87
2018-02-22T13:34:35.852Z,14.73
2018-02-22T13:40:27.349Z,2.27
2018-02-22T13:42:57.121Z,2.43
2018-02-22T13:45:33.270Z,3.77
2018-02-22T13:48:02.172Z,5.80
2018-02-22T13:50:48.440Z,4.23
2018-02-22T13:53:17.128Z,4.47
2018-02-22T13:55:45.688Z,6.20
2018-02-22T13:58:15.009Z,5.23
2018-02-22T14:01:01.281Z,3.83
2018-02-22T14:03:30.599Z,3.60
2018-02-22T14:05:59.419Z,6.03
2018-02-22T14:08:46.574Z,10.60
2018-02-22T14:11:15.905Z,5.83
2018-02-22T14:13:44.456Z,8.20
2018-02-22T14:16:13.060Z,6.03
2018-02-22T14:18:42.422Z,3.60
2018-02-22T14:21:10.973Z,4.20
2018-02-22T14:23:39.685Z,6.70
2018-02-22T14:26:08.252Z,8.00
2018-02-22T14:28:37.357Z,12.20
2018-02-22T14:31:05.962Z,10.07
2018-02-22T14:33:34.529Z,7.53
2018-02-22T14:36:03.415Z,11.73
2018-02-22T14:38:32.064Z,6.67
2018-02-22T14:41:00.626Z,8.77
2018-02-22T14:43:29.945Z,7.53
2018-02-22T14:45:58.647Z,7.73
2018-02-22T14:48:27.210Z,7.47
2018-02-22T14:50:56.537Z,4.50
2018-02-22T14:53:25.346Z,4.33
2018-02-22T14:55:54.297Z,4.17
2018-02-22T14:58:22.847Z,5.80
2018-02-22T15:00:56.864Z,7.67
2018-02-22T15:03:25.417Z,3.97
2018-02-22T15:05:54.006Z,4.20
2018-02-22T15:08:22.707Z,9.80
2018-02-22T15:10:52.032Z,5.37
2018-02-22T15:13:21.359Z,6.00
2018-02-22T15:15:49.953Z,4.60
2018-02-22T15:18:18.505Z,5.73
2018-02-22T15:20:48.224Z,7.00
2018-02-22T15:23:17.868Z,8.83
2018-02-22T15:25:46.459Z,8.53
2018-02-22T15:28:15.017Z,5.27
2018-02-22T15:30:43.690Z,6.13
2018-02-22T15:33:12.248Z,5.63
2018-02-22T15:35:41.575Z,6.77
2018-02-22T15:38:10.409Z,6.40
2018-02-22T15:40:38.972Z,7.20
2018-02-22T15:43:07.563Z,5.53
2018-02-22T15:45:36.175Z,8.40
2018-02-22T15:48:04.751Z,7.27
2018-02-22T15:50:35.008Z,5.27
2018-02-22T15:53:03.621Z,5.23
2018-02-22T15:55:32.252Z,5.83
2018-02-22T15:58:02.308Z,4.60
2018-02-22T16:00:31.325Z,7.83
2018-02-22T16:02:59.876Z,8.90
2018-02-22T16:05:28.432Z,4.37
2018-02-22T16:07:57.900Z,3.73
2018-02-22T16:10:26.456Z,5.30
2018-02-22T16:12:55.018Z,4.03
2018-02-22T16:15:24.684Z,4.07
2018-02-22T16:17:53.245Z,8.10
2018-02-22T16:20:21.881Z,7.60
2018-02-22T16:22:52.374Z,12.83
2018-02-22T16:25:21.729Z,32.07
2018-02-22T16:27:50.293Z,175.90
2018-02-22T16:30:19.869Z,82.07
2018-02-22T16:32:48.429Z,28.77
2018-02-22T16:35:16.993Z,24.57
2018-02-22T16:37:45.750Z,29.67
2018-02-22T16:40:15.081Z,35.77
2018-02-22T16:42:44.089Z,21.90
2018-02-22T16:45:12.998Z,26.30
2018-02-22T16:47:41.554Z,22.70
2018-02-22T16:50:10.121Z,20.83
2018-02-22T16:52:38.739Z,27.30
2018-02-22T16:55:07.309Z,32.07
2018-02-22T16:57:35.872Z,32.27
2018-02-22T17:00:04.920Z,33.27
2018-02-22T17:02:33.510Z,33.80
2018-02-22T17:05:02.087Z,27.63
2018-02-22T17:07:30.879Z,21.00
2018-02-22T17:09:59.448Z,17.13
2018-02-22T17:12:28.060Z,66.60
2018-02-22T17:14:57.675Z,127.77
2018-02-22T17:17:44.869Z,71.00
2018-02-22T17:20:13.497Z,86.17
2018-02-22T17:22:42.074Z,140.93
2018-02-22T17:25:10.640Z,152.37
2018-02-22T17:27:44.812Z,133.33
2018-02-22T17:30:19.616Z,186.57
2018-02-22T17:32:48.227Z,142.13
2018-02-22T17:35:22.458Z,135.70
2018-02-22T17:37:57.656Z,125.33
2018-02-22T17:40:31.831Z,138.23
2018-02-22T17:43:00.469Z,131.60
2018-02-22T17:45:29.065Z,102.37
2018-02-22T17:47:58.437Z,89.57
2018-02-22T17:50:28.045Z,65.93
2018-02-22T17:52:56.936Z,61.10
2018-02-22T17:55:25.521Z,96.13
2018-02-22T17:57:54.308Z,94.87
2018-02-22T18:00:22.911Z,107.47
2018-02-22T18:02:51.526Z,123.50
2018-02-22T18:05:20.273Z,121.80
2018-02-22T18:07:49.588Z,88.57
2018-02-22T18:10:18.189Z,166.70
2018-02-22T18:12:46.832Z,91.13
2018-02-22T18:15:16.670Z,96.60
2018-02-22T18:17:45.253Z,112.53
2018-02-22T18:20:15.017Z,124.77
2018-02-22T18:22:43.613Z,95.13
2018-02-22T18:25:13.917Z,106.33
2018-02-22T18:27:42.527Z,92.33
2018-02-22T18:30:11.865Z,95.80
2018-02-22T18:32:40.450Z,79.27
2018-02-22T18:35:09.162Z,73.53
2018-02-22T18:37:42.981Z,56.97
2018-02-22T18:40:17.094Z,59.50
2018-02-22T18:42:50.342Z,59.13
2018-02-22T18:45:19.044Z,58.27
2018-02-22T18:47:47.606Z,51.73
2018-02-22T18:50:16.164Z,65.77
2018-02-22T18:52:45.696Z,78.97
2018-02-22T18:55:15.158Z,65.50
2018-02-22T18:57:43.721Z,61.90
2018-02-22T19:00:12.322Z,69.57
2018-02-22T19:02:40.897Z,82.70
2018-02-22T19:05:09.472Z,72.70
2018-02-22T19:07:38.077Z,61.53
2018-02-22T19:10:06.692Z,45.47
2018-02-22T19:12:36.013Z,61.47
2018-02-22T19:15:04.921Z,70.03
2018-02-22T19:17:34.400Z,80.63
2018-02-22T19:20:02.954Z,86.80
2018-02-22T19:22:32.340Z,73.73
2018-02-22T19:25:00.898Z,92.57
2018-02-22T19:27:29.482Z,124.83
2018-02-22T19:29:58.482Z,65.77
2018-02-22T19:32:27.044Z,48.57
2018-02-22T19:34:55.604Z,52.27
2018-02-22T19:37:24.362Z,47.97
2018-02-22T19:39:52.941Z,58.13
2018-02-22T19:42:22.296Z,83.97
2018-02-22T19:44:51.083Z,76.07
2018-02-22T19:47:19.641Z,96.33
2018-02-22T19:49:48.600Z,65.00
2018-02-22T19:52:18.163Z,89.17
2018-02-22T19:54:46.725Z,78.30
2018-02-22T19:57:15.285Z,83.00
2018-02-22T19:59:44.089Z,84.73
2018-02-22T20:02:12.651Z,76.47
2018-02-22T20:04:42.023Z,58.67
2018-02-22T20:07:10.902Z,73.10
2018-02-22T20:09:39.479Z,41.93
2018-02-22T20:12:08.054Z,41.60
2018-02-22T20:14:37.472Z,81.73
2018-02-22T20:17:06.040Z,80.10
2018-02-22T20:19:34.623Z,65.67
2018-02-22T20:22:03.412Z,63.93
2018-02-22T20:24:31.970Z,54.43
2018-02-22T20:27:00.529Z,63.53
2018-02-22T20:29:30.003Z,54.17
2018-02-22T20:31:58.570Z,51.10
2018-02-22T20:34:27.144Z,50.73
2018-02-22T20:36:55.768Z,53.27
2018-02-22T20:39:24.340Z,55.87
2018-02-22T20:41:52.900Z,60.53
2018-02-22T20:44:21.511Z,57.07
2018-02-22T20:46:50.075Z,81.10
2018-02-22T20:49:19.044Z,105.07
2018-02-22T20:51:48.477Z,84.63
2018-02-22T20:54:17.054Z,68.07
2018-02-22T20:56:45.637Z,67.40
2018-02-22T20:59:14.413Z,92.90
2018-02-22T21:01:42.968Z,50.23
2018-02-22T21:04:11.550Z,60.80
2018-02-22T21:06:40.153Z,48.00
2018-02-22T21:09:08.714Z,51.33
2018-02-22T21:11:37.277Z,101.77
2018-02-22T21:14:06.645Z,61.40
2018-02-22T21:16:35.204Z,60.07
2018-02-22T21:19:03.785Z,64.57
2018-02-22T21:21:32.397Z,123.27
2018-02-22T21:24:00.966Z,143.93
2018-02-22T21:26:29.525Z,161.03
2018-02-22T21:28:58.337Z,139.53
2018-02-22T21:31:26.897Z,112.90
2018-02-22T21:33:55.442Z,71.67
2018-02-22T21:36:24.814Z,45.70
2018-02-22T21:38:53.387Z,47.97
2018-02-22T21:41:21.986Z,61.60
2018-02-22T21:43:50.585Z,86.70
2018-02-22T21:46:19.145Z,69.23
2018-02-22T21:48:47.697Z,40.07
2018-02-22T21:51:16.306Z,34.87
2018-02-22T21:53:44.859Z,32.43
2018-02-22T21:56:13.420Z,30.63
2018-02-22T21:58:42.981Z,36.00
2018-02-22T22:01:11.536Z,34.97
2018-02-22T22:03:40.108Z,36.20
2018-02-22T22:06:08.941Z,40.60
2018-02-22T22:08:37.505Z,52.43
2018-02-22T22:11:06.060Z,39.83
2018-02-22T22:13:34.756Z,38.33
2018-02-22T22:16:03.311Z,31.13
2018-02-22T22:18:32.624Z,32.67
2018-02-22T22:21:02.281Z,38.23
2018-02-22T22:23:30.836Z,31.53
2018-02-22T22:25:59.397Z,25.33
2018-02-22T22:28:28.281Z,28.23
2018-02-22T22:30:57.598Z,26.87
2018-02-22T22:33:26.168Z,28.17
2018-02-22T22:35:55.814Z,48.10
2018-02-22T22:38:24.369Z,32.40
2018-02-22T22:40:52.925Z,34.47
2018-02-22T22:43:21.528Z,28.77
2018-02-22T22:45:50.845Z,22.07
2018-02-22T22:48:19.400Z,25.60
2018-02-22T22:50:48.781Z,22.50
2018-02-22T22:53:17.336Z,27.67
2018-02-22T22:55:45.888Z,33.23
2018-02-22T22:58:14.512Z,31.43
2018-02-22T23:00:43.060Z,27.87
2018-02-22T23:03:11.621Z,27.87
2018-02-22T23:05:40.989Z,45.67
2018-02-22T23:08:09.561Z,44.47
2018-02-22T23:10:38.112Z,47.57
2018-02-22T23:13:06.716Z,53.53
2018-02-22T23:15:35.266Z,54.03
2018-02-22T23:18:03.822Z,53.00
2018-02-22T23:20:33.194Z,29.20
2018-02-22T23:23:01.745Z,26.03
2018-02-22T23:25:30.296Z,24.10
2018-02-22T23:28:00.584Z,23.97
2018-02-22T23:30:29.138Z,19.87
2018-02-22T23:32:57.693Z,20.73
2018-02-22T23:35:27.189Z,15.50
2018-02-22T23:37:57.445Z,15.07
2018-02-22T23:40:37.016Z,15.00
2018-02-22T23:43:05.620Z,12.10
2018-02-22T23:45:34.192Z,11.60
2018-02-22T23:48:02.800Z,12.37
2018-02-22T23:50:31.429Z,13.97
2018-02-22T23:52:59.991Z,15.97
2018-02-22T23:55:28.645Z,14.23
2018-02-22T23:57:58.019Z,17.37
